sensor_id;sensor_type;location;lat;lon;timestamp;temperature;humidity
35962;DHT22;22044;48.298;10.008;2022-10-17T00:00:32;11.20;99.90
35962;DHT22;22044;48.298;10.008;2022-10-17T00:03:18;11.20;99.90
35962;DHT22;22044;48.298;10.008;2022-10-17T00:06:05;11.10;99.90
35962;DHT22;22044;48.298;10.008;2022-10-17T00:08:52;11.10;99.90
35962;DHT22;22044;48.298;10.008;2022-10-17T00:11:38;11.20;99.90
35962;DHT22;22044;48.298;10.008;2022-10-17T00:14:24;11.40;99.90
35962;DHT22;22044;48.298;10.008;2022-10-17T00:17:09;11.50;99.90
35962;DHT22;22044;48.298;10.008;2022-10-17T00:19:56;11.50;99.90
35962;DHT22;22044;48.298;10.008;2022-10-17T00:22:42;11.60;99.90
35962;DHT22;22044;48.298;10.008;2022-10-17T00:25:29;11.70;99.90
35962;DHT22;22044;48.298;10.008;2022-10-17T00:28:15;11.80;99.90
35962;DHT22;22044;48.298;10.008;2022-10-17T00:31:03;11.80;99.90
35962;DHT22;22044;48.298;10.008;2022-10-17T00:33:49;11.90;99.90
35962;DHT22;22044;48.298;10.008;2022-10-17T00:36:34;11.90;99.90
35962;DHT22;22044;48.298;10.008;2022-10-17T00:39:21;11.90;99.90
35962;DHT22;22044;48.298;10.008;2022-10-17T00:42:11;11.80;99.90
35962;DHT22;22044;48.298;10.008;2022-10-17T00:45:17;11.80;99.90
35962;DHT22;22044;48.298;10.008;2022-10-17T00:48:04;11.50;99.90
35962;DHT22;22044;48.298;10.008;2022-10-17T00:50:52;11.20;99.90
35962;DHT22;22044;48.298;10.008;2022-10-17T00:53:38;11.00;99.90
35962;DHT22;22044;48.298;10.008;2022-10-17T00:56:25;11.10;99.90
35962;DHT22;22044;48.298;10.008;2022-10-17T00:59:12;11.20;99.90
35962;DHT22;22044;48.298;10.008;2022-10-17T01:02:01;11.30;99.90
35962;DHT22;22044;48.298;10.008;2022-10-17T01:04:50;10.60;99.90
35962;DHT22;22044;48.298;10.008;2022-10-17T01:07:36;10.60;99.90
35962;DHT22;22044;48.298;10.008;2022-10-17T01:10:28;10.70;99.90
35962;DHT22;22044;48.298;10.008;2022-10-17T01:13:18;10.90;99.90
35962;DHT22;22044;48.298;10.008;2022-10-17T01:16:12;11.10;99.90
35962;DHT22;22044;48.298;10.008;2022-10-17T01:19:05;11.20;99.90
35962;DHT22;22044;48.298;10.008;2022-10-17T01:21:59;11.20;99.90
35962;DHT22;22044;48.298;10.008;2022-10-17T01:24:58;11.30;99.90
35962;DHT22;22044;48.298;10.008;2022-10-17T01:28:02;11.20;99.90
35962;DHT22;22044;48.298;10.008;2022-10-17T01:31:02;11.30;99.90
35962;DHT22;22044;48.298;10.008;2022-10-17T01:33:58;11.40;99.90
35962;DHT22;22044;48.298;10.008;2022-10-17T01:36:49;11.50;99.90
35962;DHT22;22044;48.298;10.008;2022-10-17T01:39:41;11.50;99.90
35962;DHT22;22044;48.298;10.008;2022-10-17T01:42:32;11.40;99.90
35962;DHT22;22044;48.298;10.008;2022-10-17T01:45:24;11.40;99.90
35962;DHT22;22044;48.298;10.008;2022-10-17T01:48:16;11.20;99.90
35962;DHT22;22044;48.298;10.008;2022-10-17T01:51:07;11.20;99.90
35962;DHT22;22044;48.298;10.008;2022-10-17T01:53:58;11.20;99.90
35962;DHT22;22044;48.298;10.008;2022-10-17T01:56:47;11.30;99.90
35962;DHT22;22044;48.298;10.008;2022-10-17T01:59:37;11.30;99.90
35962;DHT22;22044;48.298;10.008;2022-10-17T02:02:24;11.40;99.90
35962;DHT22;22044;48.298;10.008;2022-10-17T02:05:15;11.40;99.90
35962;DHT22;22044;48.298;10.008;2022-10-17T02:08:01;11.30;99.90
35962;DHT22;22044;48.298;10.008;2022-10-17T02:10:53;11.20;99.90
35962;DHT22;22044;48.298;10.008;2022-10-17T02:16:53;11.20;99.90
35962;DHT22;22044;48.298;10.008;2022-10-17T02:19:53;11.10;99.90
35962;DHT22;22044;48.298;10.008;2022-10-17T02:22:44;11.10;99.90
35962;DHT22;22044;48.298;10.008;2022-10-17T02:25:35;10.90;99.90
35962;DHT22;22044;48.298;10.008;2022-10-17T02:28:30;10.50;99.90
35962;DHT22;22044;48.298;10.008;2022-10-17T02:31:23;10.00;99.90
35962;DHT22;22044;48.298;10.008;2022-10-17T02:34:13;9.90;99.90
35962;DHT22;22044;48.298;10.008;2022-10-17T02:37:06;10.10;99.90
35962;DHT22;22044;48.298;10.008;2022-10-17T02:39:53;10.30;99.90
35962;DHT22;22044;48.298;10.008;2022-10-17T02:42:43;10.40;99.90
35962;DHT22;22044;48.298;10.008;2022-10-17T02:45:30;10.30;99.90
35962;DHT22;22044;48.298;10.008;2022-10-17T02:48:25;10.20;99.90
35962;DHT22;22044;48.298;10.008;2022-10-17T02:51:17;10.20;99.90
35962;DHT22;22044;48.298;10.008;2022-10-17T02:54:09;10.20;99.90
35962;DHT22;22044;48.298;10.008;2022-10-17T02:57:06;10.20;99.90
35962;DHT22;22044;48.298;10.008;2022-10-17T02:59:54;10.30;99.90
35962;DHT22;22044;48.298;10.008;2022-10-17T03:02:42;10.10;99.90
35962;DHT22;22044;48.298;10.008;2022-10-17T03:05:28;10.00;99.90
35962;DHT22;22044;48.298;10.008;2022-10-17T03:08:14;10.00;99.90
35962;DHT22;22044;48.298;10.008;2022-10-17T03:11:00;9.80;99.90
35962;DHT22;22044;48.298;10.008;2022-10-17T03:13:48;9.50;99.90
35962;DHT22;22044;48.298;10.008;2022-10-17T03:16:34;9.50;99.90
35962;DHT22;22044;48.298;10.008;2022-10-17T03:19:21;9.50;99.90
35962;DHT22;22044;48.298;10.008;2022-10-17T03:22:09;9.60;99.90
35962;DHT22;22044;48.298;10.008;2022-10-17T03:24:57;9.80;99.90
35962;DHT22;22044;48.298;10.008;2022-10-17T03:27:43;9.90;99.90
35962;DHT22;22044;48.298;10.008;2022-10-17T03:30:30;9.90;99.90
35962;DHT22;22044;48.298;10.008;2022-10-17T03:33:16;9.90;99.90
35962;DHT22;22044;48.298;10.008;2022-10-17T03:36:06;9.90;99.90
35962;DHT22;22044;48.298;10.008;2022-10-17T03:38:52;9.90;99.90
35962;DHT22;22044;48.298;10.008;2022-10-17T03:41:39;9.90;99.90
35962;DHT22;22044;48.298;10.008;2022-10-17T03:44:25;9.90;99.90
35962;DHT22;22044;48.298;10.008;2022-10-17T03:47:12;9.90;99.90
35962;DHT22;22044;48.298;10.008;2022-10-17T03:49:58;9.70;99.90
35962;DHT22;22044;48.298;10.008;2022-10-17T03:52:45;9.70;99.90
35962;DHT22;22044;48.298;10.008;2022-10-17T03:55:31;9.70;99.90
35962;DHT22;22044;48.298;10.008;2022-10-17T03:58:17;9.70;99.90
35962;DHT22;22044;48.298;10.008;2022-10-17T04:01:03;9.90;99.90
35962;DHT22;22044;48.298;10.008;2022-10-17T04:03:52;9.90;99.90
35962;DHT22;22044;48.298;10.008;2022-10-17T04:06:38;10.00;99.90
35962;DHT22;22044;48.298;10.008;2022-10-17T04:09:23;10.10;99.90
35962;DHT22;22044;48.298;10.008;2022-10-17T04:12:26;10.10;99.90
35962;DHT22;22044;48.298;10.008;2022-10-17T04:15:12;10.00;99.90
35962;DHT22;22044;48.298;10.008;2022-10-17T04:17:58;9.70;99.90
35962;DHT22;22044;48.298;10.008;2022-10-17T04:20:45;9.40;99.90
35962;DHT22;22044;48.298;10.008;2022-10-17T04:23:31;9.20;99.90
35962;DHT22;22044;48.298;10.008;2022-10-17T04:26:23;8.80;99.90
35962;DHT22;22044;48.298;10.008;2022-10-17T04:29:11;8.70;99.90
35962;DHT22;22044;48.298;10.008;2022-10-17T04:31:58;8.80;99.90
35962;DHT22;22044;48.298;10.008;2022-10-17T04:34:52;9.00;99.90
35962;DHT22;22044;48.298;10.008;2022-10-17T04:37:41;9.20;99.90
35962;DHT22;22044;48.298;10.008;2022-10-17T04:40:35;9.10;99.90
35962;DHT22;22044;48.298;10.008;2022-10-17T04:43:21;9.10;99.90
35962;DHT22;22044;48.298;10.008;2022-10-17T04:46:07;9.10;99.90
35962;DHT22;22044;48.298;10.008;2022-10-17T04:48:53;9.30;99.90
35962;DHT22;22044;48.298;10.008;2022-10-17T04:51:39;9.40;99.90
35962;DHT22;22044;48.298;10.008;2022-10-17T04:54:36;9.40;99.90
35962;DHT22;22044;48.298;10.008;2022-10-17T04:57:26;9.50;99.90
35962;DHT22;22044;48.298;10.008;2022-10-17T05:00:28;9.50;99.90
35962;DHT22;22044;48.298;10.008;2022-10-17T05:03:37;9.60;99.90
35962;DHT22;22044;48.298;10.008;2022-10-17T05:06:24;9.40;99.90
35962;DHT22;22044;48.298;10.008;2022-10-17T05:09:50;9.50;99.90
35962;DHT22;22044;48.298;10.008;2022-10-17T05:12:36;9.50;99.90
35962;DHT22;22044;48.298;10.008;2022-10-17T05:15:22;9.70;99.90
35962;DHT22;22044;48.298;10.008;2022-10-17T05:18:10;9.70;99.90
35962;DHT22;22044;48.298;10.008;2022-10-17T05:20:56;9.70;99.90
35962;DHT22;22044;48.298;10.008;2022-10-17T05:23:42;9.80;99.90
35962;DHT22;22044;48.298;10.008;2022-10-17T05:26:29;9.80;99.90
35962;DHT22;22044;48.298;10.008;2022-10-17T05:29:14;9.80;99.90
35962;DHT22;22044;48.298;10.008;2022-10-17T05:32:05;9.70;99.90
35962;DHT22;22044;48.298;10.008;2022-10-17T05:34:52;9.50;99.90
35962;DHT22;22044;48.298;10.008;2022-10-17T05:37:39;9.50;99.90
35962;DHT22;22044;48.298;10.008;2022-10-17T05:40:28;9.30;99.90
35962;DHT22;22044;48.298;10.008;2022-10-17T05:43:17;9.30;99.90
35962;DHT22;22044;48.298;10.008;2022-10-17T05:46:05;9.20;99.90
35962;DHT22;22044;48.298;10.008;2022-10-17T05:48:52;9.10;99.90
35962;DHT22;22044;48.298;10.008;2022-10-17T05:51:39;9.00;99.90
35962;DHT22;22044;48.298;10.008;2022-10-17T05:54:26;8.90;99.90
35962;DHT22;22044;48.298;10.008;2022-10-17T05:57:12;8.80;99.90
35962;DHT22;22044;48.298;10.008;2022-10-17T06:00:00;8.80;99.90
35962;DHT22;22044;48.298;10.008;2022-10-17T06:02:58;8.70;99.90
35962;DHT22;22044;48.298;10.008;2022-10-17T06:05:44;8.80;99.90
35962;DHT22;22044;48.298;10.008;2022-10-17T06:08:31;8.90;99.90
35962;DHT22;22044;48.298;10.008;2022-10-17T06:11:17;8.80;99.90
35962;DHT22;22044;48.298;10.008;2022-10-17T06:14:03;8.90;99.90
35962;DHT22;22044;48.298;10.008;2022-10-17T06:16:51;8.90;99.90
35962;DHT22;22044;48.298;10.008;2022-10-17T06:19:36;9.00;99.90
35962;DHT22;22044;48.298;10.008;2022-10-17T06:22:24;9.00;99.90
35962;DHT22;22044;48.298;10.008;2022-10-17T06:25:10;9.20;99.90
35962;DHT22;22044;48.298;10.008;2022-10-17T06:27:55;9.40;99.90
35962;DHT22;22044;48.298;10.008;2022-10-17T06:30:41;9.50;99.90
35962;DHT22;22044;48.298;10.008;2022-10-17T06:33:28;9.40;99.90
35962;DHT22;22044;48.298;10.008;2022-10-17T06:36:15;9.40;99.90
35962;DHT22;22044;48.298;10.008;2022-10-17T06:39:02;9.40;99.90
35962;DHT22;22044;48.298;10.008;2022-10-17T06:41:56;9.40;99.90
35962;DHT22;22044;48.298;10.008;2022-10-17T06:44:55;9.40;99.90
35962;DHT22;22044;48.298;10.008;2022-10-17T06:47:58;9.60;99.90
35962;DHT22;22044;48.298;10.008;2022-10-17T06:51:01;9.80;99.90
35962;DHT22;22044;48.298;10.008;2022-10-17T06:53:48;9.90;99.90
35962;DHT22;22044;48.298;10.008;2022-10-17T06:56:46;9.90;99.90
35962;DHT22;22044;48.298;10.008;2022-10-17T07:00:05;10.10;99.90
35962;DHT22;22044;48.298;10.008;2022-10-17T07:02:59;10.20;99.90
35962;DHT22;22044;48.298;10.008;2022-10-17T07:05:50;10.30;99.90
35962;DHT22;22044;48.298;10.008;2022-10-17T07:08:41;10.40;99.90
35962;DHT22;22044;48.298;10.008;2022-10-17T07:11:27;10.50;99.90
35962;DHT22;22044;48.298;10.008;2022-10-17T07:14:13;10.60;99.90
35962;DHT22;22044;48.298;10.008;2022-10-17T07:17:00;10.70;99.90
35962;DHT22;22044;48.298;10.008;2022-10-17T07:19:50;10.80;99.90
35962;DHT22;22044;48.298;10.008;2022-10-17T07:22:37;11.00;99.90
35962;DHT22;22044;48.298;10.008;2022-10-17T07:25:23;11.00;99.90
35962;DHT22;22044;48.298;10.008;2022-10-17T07:28:13;11.00;99.90
35962;DHT22;22044;48.298;10.008;2022-10-17T07:31:02;11.10;99.90
35962;DHT22;22044;48.298;10.008;2022-10-17T07:33:48;11.10;99.90
35962;DHT22;22044;48.298;10.008;2022-10-17T07:36:34;11.20;99.90
35962;DHT22;22044;48.298;10.008;2022-10-17T07:39:22;11.20;99.90
35962;DHT22;22044;48.298;10.008;2022-10-17T07:42:09;11.30;99.90
35962;DHT22;22044;48.298;10.008;2022-10-17T07:44:55;11.50;99.90
35962;DHT22;22044;48.298;10.008;2022-10-17T07:47:43;11.60;99.90
35962;DHT22;22044;48.298;10.008;2022-10-17T07:50:32;11.90;99.90
35962;DHT22;22044;48.298;10.008;2022-10-17T07:53:18;12.20;99.90
35962;DHT22;22044;48.298;10.008;2022-10-17T07:56:05;12.80;99.90
35962;DHT22;22044;48.298;10.008;2022-10-17T07:58:52;13.20;99.90
35962;DHT22;22044;48.298;10.008;2022-10-17T08:01:38;13.40;99.90
35962;DHT22;22044;48.298;10.008;2022-10-17T08:04:24;13.50;99.90
35962;DHT22;22044;48.298;10.008;2022-10-17T08:07:09;13.70;99.90
35962;DHT22;22044;48.298;10.008;2022-10-17T08:09:55;14.00;99.90
35962;DHT22;22044;48.298;10.008;2022-10-17T08:12:41;14.60;99.90
35962;DHT22;22044;48.298;10.008;2022-10-17T08:15:28;15.50;99.90
35962;DHT22;22044;48.298;10.008;2022-10-17T08:18:15;16.80;99.90
35962;DHT22;22044;48.298;10.008;2022-10-17T08:21:01;18.30;99.90
35962;DHT22;22044;48.298;10.008;2022-10-17T08:23:49;19.80;99.90
35962;DHT22;22044;48.298;10.008;2022-10-17T08:26:35;21.00;99.90
35962;DHT22;22044;48.298;10.008;2022-10-17T08:29:20;22.40;99.90
35962;DHT22;22044;48.298;10.008;2022-10-17T08:32:08;22.70;99.90
35962;DHT22;22044;48.298;10.008;2022-10-17T08:34:54;23.40;99.90
35962;DHT22;22044;48.298;10.008;2022-10-17T08:37:40;22.70;99.90
35962;DHT22;22044;48.298;10.008;2022-10-17T08:40:27;23.00;99.90
35962;DHT22;22044;48.298;10.008;2022-10-17T08:43:33;23.00;99.90
35962;DHT22;22044;48.298;10.008;2022-10-17T08:46:21;22.30;99.90
35962;DHT22;22044;48.298;10.008;2022-10-17T08:49:12;21.10;99.90
35962;DHT22;22044;48.298;10.008;2022-10-17T08:52:06;20.70;99.90
35962;DHT22;22044;48.298;10.008;2022-10-17T08:54:54;19.10;99.90
35962;DHT22;22044;48.298;10.008;2022-10-17T08:57:40;18.10;99.90
35962;DHT22;22044;48.298;10.008;2022-10-17T09:00:27;17.50;99.90
35962;DHT22;22044;48.298;10.008;2022-10-17T09:03:27;17.00;99.90
35962;DHT22;22044;48.298;10.008;2022-10-17T09:06:21;17.20;99.90
35962;DHT22;22044;48.298;10.008;2022-10-17T09:09:28;17.30;99.90
35962;DHT22;22044;48.298;10.008;2022-10-17T09:12:17;17.20;99.90
35962;DHT22;22044;48.298;10.008;2022-10-17T09:15:24;17.20;99.90
35962;DHT22;22044;48.298;10.008;2022-10-17T09:18:17;17.20;99.90
35962;DHT22;22044;48.298;10.008;2022-10-17T09:21:13;17.10;99.90
35962;DHT22;22044;48.298;10.008;2022-10-17T09:24:10;17.00;99.90
35962;DHT22;22044;48.298;10.008;2022-10-17T09:26:57;16.80;99.90
35962;DHT22;22044;48.298;10.008;2022-10-17T09:29:48;16.80;99.90
35962;DHT22;22044;48.298;10.008;2022-10-17T09:32:37;16.90;99.90
35962;DHT22;22044;48.298;10.008;2022-10-17T09:35:24;16.90;99.90
35962;DHT22;22044;48.298;10.008;2022-10-17T09:38:15;16.90;99.90
35962;DHT22;22044;48.298;10.008;2022-10-17T09:41:02;16.90;99.90
35962;DHT22;22044;48.298;10.008;2022-10-17T09:43:51;17.00;99.90
35962;DHT22;22044;48.298;10.008;2022-10-17T09:46:44;17.20;99.90
35962;DHT22;22044;48.298;10.008;2022-10-17T09:49:33;17.40;99.90
35962;DHT22;22044;48.298;10.008;2022-10-17T09:52:24;17.50;99.90
35962;DHT22;22044;48.298;10.008;2022-10-17T09:55:17;17.30;99.90
35962;DHT22;22044;48.298;10.008;2022-10-17T09:58:06;17.20;99.90
35962;DHT22;22044;48.298;10.008;2022-10-17T10:00:52;17.00;99.90
35962;DHT22;22044;48.298;10.008;2022-10-17T10:03:37;17.00;99.90
35962;DHT22;22044;48.298;10.008;2022-10-17T10:06:23;17.30;99.90
35962;DHT22;22044;48.298;10.008;2022-10-17T10:09:21;17.40;99.90
35962;DHT22;22044;48.298;10.008;2022-10-17T10:12:21;17.40;99.90
35962;DHT22;22044;48.298;10.008;2022-10-17T10:15:34;17.50;99.90
35962;DHT22;22044;48.298;10.008;2022-10-17T10:18:29;17.50;99.90
35962;DHT22;22044;48.298;10.008;2022-10-17T10:21:16;17.50;99.90
35962;DHT22;22044;48.298;10.008;2022-10-17T10:24:09;17.50;99.90
35962;DHT22;22044;48.298;10.008;2022-10-17T10:26:58;17.50;99.90
35962;DHT22;22044;48.298;10.008;2022-10-17T10:29:49;17.70;99.90
35962;DHT22;22044;48.298;10.008;2022-10-17T10:32:37;17.80;99.90
35962;DHT22;22044;48.298;10.008;2022-10-17T10:35:26;18.00;99.90
35962;DHT22;22044;48.298;10.008;2022-10-17T10:38:16;18.10;99.90
35962;DHT22;22044;48.298;10.008;2022-10-17T10:41:04;18.30;99.90
35962;DHT22;22044;48.298;10.008;2022-10-17T10:43:51;18.30;99.90
35962;DHT22;22044;48.298;10.008;2022-10-17T10:46:37;18.30;99.90
35962;DHT22;22044;48.298;10.008;2022-10-17T10:49:31;18.50;99.90
35962;DHT22;22044;48.298;10.008;2022-10-17T10:52:24;18.60;99.90
35962;DHT22;22044;48.298;10.008;2022-10-17T10:55:22;18.80;99.90
35962;DHT22;22044;48.298;10.008;2022-10-17T10:58:21;18.80;99.90
35962;DHT22;22044;48.298;10.008;2022-10-17T11:01:14;18.80;99.90
35962;DHT22;22044;48.298;10.008;2022-10-17T11:04:12;19.00;99.90
35962;DHT22;22044;48.298;10.008;2022-10-17T11:07:03;19.10;99.90
35962;DHT22;22044;48.298;10.008;2022-10-17T11:09:53;19.20;99.90
35962;DHT22;22044;48.298;10.008;2022-10-17T11:12:43;19.30;99.90
35962;DHT22;22044;48.298;10.008;2022-10-17T11:15:35;19.50;99.90
35962;DHT22;22044;48.298;10.008;2022-10-17T11:18:24;19.50;99.90
35962;DHT22;22044;48.298;10.008;2022-10-17T11:21:15;19.50;99.90
35962;DHT22;22044;48.298;10.008;2022-10-17T11:24:07;19.50;99.90
35962;DHT22;22044;48.298;10.008;2022-10-17T11:26:59;19.60;99.90
35962;DHT22;22044;48.298;10.008;2022-10-17T11:29:44;19.50;99.90
35962;DHT22;22044;48.298;10.008;2022-10-17T11:32:35;19.70;99.90
35962;DHT22;22044;48.298;10.008;2022-10-17T11:35:26;19.70;99.90
35962;DHT22;22044;48.298;10.008;2022-10-17T11:38:17;19.80;99.90
35962;DHT22;22044;48.298;10.008;2022-10-17T11:41:09;19.90;99.90
35962;DHT22;22044;48.298;10.008;2022-10-17T11:43:58;20.00;99.90
35962;DHT22;22044;48.298;10.008;2022-10-17T11:46:50;20.00;99.90
35962;DHT22;22044;48.298;10.008;2022-10-17T11:49:41;20.20;99.90
35962;DHT22;22044;48.298;10.008;2022-10-17T11:52:34;20.40;99.90
35962;DHT22;22044;48.298;10.008;2022-10-17T11:55:23;20.30;99.90
35962;DHT22;22044;48.298;10.008;2022-10-17T11:58:26;20.50;99.90
35962;DHT22;22044;48.298;10.008;2022-10-17T12:01:22;20.50;99.90
35962;DHT22;22044;48.298;10.008;2022-10-17T12:04:18;20.40;99.90
35962;DHT22;22044;48.298;10.008;2022-10-17T12:07:09;20.40;99.90
35962;DHT22;22044;48.298;10.008;2022-10-17T12:10:06;20.40;99.90
35962;DHT22;22044;48.298;10.008;2022-10-17T12:13:52;20.40;99.90
35962;DHT22;22044;48.298;10.008;2022-10-17T12:16:43;20.40;99.90
35962;DHT22;22044;48.298;10.008;2022-10-17T12:19:30;20.40;99.90
35962;DHT22;22044;48.298;10.008;2022-10-17T12:22:20;20.50;99.90
35962;DHT22;22044;48.298;10.008;2022-10-17T12:25:16;20.40;99.90
35962;DHT22;22044;48.298;10.008;2022-10-17T12:28:14;20.40;99.90
35962;DHT22;22044;48.298;10.008;2022-10-17T12:31:09;20.40;99.90
35962;DHT22;22044;48.298;10.008;2022-10-17T12:33:57;20.40;99.90
35962;DHT22;22044;48.298;10.008;2022-10-17T12:36:43;20.50;99.90
35962;DHT22;22044;48.298;10.008;2022-10-17T12:39:50;20.40;99.90
35962;DHT22;22044;48.298;10.008;2022-10-17T12:42:49;20.40;99.90
35962;DHT22;22044;48.298;10.008;2022-10-17T12:45:46;20.50;99.90
35962;DHT22;22044;48.298;10.008;2022-10-17T12:48:58;20.50;99.90
35962;DHT22;22044;48.298;10.008;2022-10-17T12:52:04;20.60;99.90
35962;DHT22;22044;48.298;10.008;2022-10-17T12:54:57;20.80;99.90
35962;DHT22;22044;48.298;10.008;2022-10-17T12:57:49;20.70;99.90
35962;DHT22;22044;48.298;10.008;2022-10-17T13:00:42;20.80;99.90
35962;DHT22;22044;48.298;10.008;2022-10-17T13:03:30;20.80;99.90
35962;DHT22;22044;48.298;10.008;2022-10-17T13:06:20;21.00;99.90
35962;DHT22;22044;48.298;10.008;2022-10-17T13:12:16;20.90;99.90
35962;DHT22;22044;48.298;10.008;2022-10-17T13:15:05;21.00;99.90
35962;DHT22;22044;48.298;10.008;2022-10-17T13:17:57;21.00;99.90
35962;DHT22;22044;48.298;10.008;2022-10-17T13:20:42;21.00;99.90
35962;DHT22;22044;48.298;10.008;2022-10-17T13:23:32;21.10;99.90
35962;DHT22;22044;48.298;10.008;2022-10-17T13:26:19;21.10;99.90
35962;DHT22;22044;48.298;10.008;2022-10-17T13:29:09;21.00;99.90
35962;DHT22;22044;48.298;10.008;2022-10-17T13:31:58;21.20;99.90
35962;DHT22;22044;48.298;10.008;2022-10-17T13:35:04;21.30;99.90
35962;DHT22;22044;48.298;10.008;2022-10-17T13:37:51;21.40;99.90
35962;DHT22;22044;48.298;10.008;2022-10-17T13:40:42;21.50;99.90
35962;DHT22;22044;48.298;10.008;2022-10-17T13:43:29;21.60;99.90
35962;DHT22;22044;48.298;10.008;2022-10-17T13:46:24;21.60;99.90
35962;DHT22;22044;48.298;10.008;2022-10-17T13:49:15;21.70;99.90
35962;DHT22;22044;48.298;10.008;2022-10-17T13:52:03;21.60;99.90
35962;DHT22;22044;48.298;10.008;2022-10-17T13:54:51;21.70;99.90
35962;DHT22;22044;48.298;10.008;2022-10-17T13:57:39;21.70;99.90
35962;DHT22;22044;48.298;10.008;2022-10-17T14:00:28;21.70;99.90
35962;DHT22;22044;48.298;10.008;2022-10-17T14:03:14;21.80;99.90
35962;DHT22;22044;48.298;10.008;2022-10-17T14:06:04;21.80;99.90
35962;DHT22;22044;48.298;10.008;2022-10-17T14:08:57;21.80;99.90
35962;DHT22;22044;48.298;10.008;2022-10-17T14:11:43;21.80;99.90
35962;DHT22;22044;48.298;10.008;2022-10-17T14:14:49;21.80;99.90
35962;DHT22;22044;48.298;10.008;2022-10-17T14:17:35;21.80;99.90
35962;DHT22;22044;48.298;10.008;2022-10-17T14:20:25;21.70;99.90
35962;DHT22;22044;48.298;10.008;2022-10-17T14:23:34;21.70;99.90
35962;DHT22;22044;48.298;10.008;2022-10-17T14:26:22;21.70;99.90
35962;DHT22;22044;48.298;10.008;2022-10-17T14:29:19;21.70;99.90
35962;DHT22;22044;48.298;10.008;2022-10-17T14:32:12;21.60;99.90
35962;DHT22;22044;48.298;10.008;2022-10-17T14:35:01;21.60;99.90
35962;DHT22;22044;48.298;10.008;2022-10-17T14:37:49;21.60;99.90
35962;DHT22;22044;48.298;10.008;2022-10-17T14:40:35;21.60;99.90
35962;DHT22;22044;48.298;10.008;2022-10-17T14:43:23;21.70;99.90
35962;DHT22;22044;48.298;10.008;2022-10-17T14:46:13;21.60;99.90
35962;DHT22;22044;48.298;10.008;2022-10-17T14:49:04;21.60;99.90
35962;DHT22;22044;48.298;10.008;2022-10-17T14:52:29;21.60;99.90
35962;DHT22;22044;48.298;10.008;2022-10-17T14:55:25;21.60;99.90
35962;DHT22;22044;48.298;10.008;2022-10-17T14:58:16;21.60;99.90
35962;DHT22;22044;48.298;10.008;2022-10-17T15:01:02;21.60;99.90
35962;DHT22;22044;48.298;10.008;2022-10-17T15:03:47;21.50;99.90
35962;DHT22;22044;48.298;10.008;2022-10-17T15:06:35;21.50;99.90
35962;DHT22;22044;48.298;10.008;2022-10-17T15:09:20;21.50;99.90
35962;DHT22;22044;48.298;10.008;2022-10-17T15:12:12;21.40;99.90
35962;DHT22;22044;48.298;10.008;2022-10-17T15:14:58;21.40;99.90
35962;DHT22;22044;48.298;10.008;2022-10-17T15:17:43;21.40;99.90
35962;DHT22;22044;48.298;10.008;2022-10-17T15:20:29;21.30;99.90
35962;DHT22;22044;48.298;10.008;2022-10-17T15:23:17;21.30;99.90
35962;DHT22;22044;48.298;10.008;2022-10-17T15:26:04;21.30;99.90
35962;DHT22;22044;48.298;10.008;2022-10-17T15:28:51;21.20;99.90
35962;DHT22;22044;48.298;10.008;2022-10-17T15:31:36;21.10;99.90
35962;DHT22;22044;48.298;10.008;2022-10-17T15:34:22;21.00;99.90
35962;DHT22;22044;48.298;10.008;2022-10-17T15:37:16;20.90;99.90
35962;DHT22;22044;48.298;10.008;2022-10-17T15:40:08;20.80;99.90
35962;DHT22;22044;48.298;10.008;2022-10-17T15:42:55;20.80;99.90
35962;DHT22;22044;48.298;10.008;2022-10-17T15:45:43;20.70;99.90
35962;DHT22;22044;48.298;10.008;2022-10-17T15:48:30;20.60;99.90
35962;DHT22;22044;48.298;10.008;2022-10-17T15:51:16;20.60;99.90
35962;DHT22;22044;48.298;10.008;2022-10-17T15:54:01;20.50;99.90
35962;DHT22;22044;48.298;10.008;2022-10-17T15:56:52;20.40;99.90
35962;DHT22;22044;48.298;10.008;2022-10-17T15:59:38;20.50;99.90
35962;DHT22;22044;48.298;10.008;2022-10-17T16:02:24;20.40;99.90
35962;DHT22;22044;48.298;10.008;2022-10-17T16:05:13;20.30;99.90
35962;DHT22;22044;48.298;10.008;2022-10-17T16:07:59;20.10;99.90
35962;DHT22;22044;48.298;10.008;2022-10-17T16:10:45;19.60;99.90
35962;DHT22;22044;48.298;10.008;2022-10-17T16:13:32;19.20;99.90
35962;DHT22;22044;48.298;10.008;2022-10-17T16:16:18;19.00;99.90
35962;DHT22;22044;48.298;10.008;2022-10-17T16:19:04;18.90;99.90
35962;DHT22;22044;48.298;10.008;2022-10-17T16:21:49;18.70;99.90
35962;DHT22;22044;48.298;10.008;2022-10-17T16:24:35;18.60;99.90
35962;DHT22;22044;48.298;10.008;2022-10-17T16:27:21;18.50;99.90
35962;DHT22;22044;48.298;10.008;2022-10-17T16:30:08;18.40;99.90
35962;DHT22;22044;48.298;10.008;2022-10-17T16:32:54;18.20;99.90
35962;DHT22;22044;48.298;10.008;2022-10-17T16:35:40;17.90;99.90
35962;DHT22;22044;48.298;10.008;2022-10-17T16:38:26;17.70;99.90
35962;DHT22;22044;48.298;10.008;2022-10-17T16:41:20;17.50;99.90
35962;DHT22;22044;48.298;10.008;2022-10-17T16:44:08;17.40;99.90
35962;DHT22;22044;48.298;10.008;2022-10-17T16:46:59;17.40;99.90
35962;DHT22;22044;48.298;10.008;2022-10-17T16:49:45;17.20;99.90
35962;DHT22;22044;48.298;10.008;2022-10-17T16:52:30;17.10;99.90
35962;DHT22;22044;48.298;10.008;2022-10-17T16:55:19;17.00;99.90
35962;DHT22;22044;48.298;10.008;2022-10-17T16:58:05;17.00;99.90
35962;DHT22;22044;48.298;10.008;2022-10-17T17:00:50;16.90;99.90
35962;DHT22;22044;48.298;10.008;2022-10-17T17:03:39;16.90;99.90
35962;DHT22;22044;48.298;10.008;2022-10-17T17:06:27;16.80;99.90
35962;DHT22;22044;48.298;10.008;2022-10-17T17:09:12;16.70;99.90
35962;DHT22;22044;48.298;10.008;2022-10-17T17:11:58;16.80;99.90
35962;DHT22;22044;48.298;10.008;2022-10-17T17:14:44;16.80;99.90
35962;DHT22;22044;48.298;10.008;2022-10-17T17:17:30;16.60;99.90
35962;DHT22;22044;48.298;10.008;2022-10-17T17:20:17;16.40;99.90
35962;DHT22;22044;48.298;10.008;2022-10-17T17:23:03;16.30;99.90
35962;DHT22;22044;48.298;10.008;2022-10-17T17:25:50;16.30;99.90
35962;DHT22;22044;48.298;10.008;2022-10-17T17:28:40;16.20;99.90
35962;DHT22;22044;48.298;10.008;2022-10-17T17:31:28;16.30;99.90
35962;DHT22;22044;48.298;10.008;2022-10-17T17:34:18;16.30;99.90
35962;DHT22;22044;48.298;10.008;2022-10-17T17:37:05;16.40;99.90
35962;DHT22;22044;48.298;10.008;2022-10-17T17:39:51;16.40;99.90
35962;DHT22;22044;48.298;10.008;2022-10-17T17:42:37;16.40;99.90
35962;DHT22;22044;48.298;10.008;2022-10-17T17:45:27;16.30;99.90
35962;DHT22;22044;48.298;10.008;2022-10-17T17:48:13;16.10;99.90